Overseas Luzon — V7NE5 — position and weather

sailwx.info

Track history (hours):
 
Tides and Currents Weather Stations Pressure Air Temp Water Temp Dewpoint Dewpoint Depression Visibility Wind Speed Wind Dir Waves Ship Positions

Overseas Luzon

Last reported at 2017-Mar-23 05:25 UTC. Time now 2017-Mar-23 16:15 UTC.
Position N 38°02' W 122°08'.

Length 228 m; draft 11 m.

Type: Tanker. MMSI: 538002946.

Date/timePositionNaut miles runAvg speedWind from/ knotsBaromVisibWave heightAir tempDewpointWater temp
2017-Mar-23 05:25N 38°02' W 122°08'6 7.5
2017-Mar-23 04:33N 38°04' W 122°16'9 9.1
2017-Mar-23 03:33N 37°59' W 122°26'1110.5
2017-Mar-23 02:33N 37°49' W 122°23'5 5.2
2017-Mar-23 01:32N 37°44' W 122°21'0 0.0
2017-Mar-23 00:32N 37°44' W 122°21'0 0.1
2017-Mar-22 23:32N 37°44' W 122°20'0 0.0
2017-Mar-22 22:32N 37°44' W 122°20'0 0.2
2017-Mar-22 21:32N 37°44' W 122°21'0 0.0
2017-Mar-22 20:32N 37°44' W 122°21'0 0.1
2017-Mar-22 19:32N 37°44' W 122°21'0 0.0
2017-Mar-22 18:32N 37°44' W 122°21'0 0.0
2017-Mar-22 17:32N 37°44' W 122°21'0 0.1
2017-Mar-22 16:32N 37°44' W 122°21'0 0.2
2017-Mar-22 15:32N 37°44' W 122°21'0 0.0
2017-Mar-22 14:32N 37°44' W 122°21'0 0.0
2017-Mar-22 13:32N 37°44' W 122°21'0 0.0
2017-Mar-22 12:32N 37°44' W 122°21'0 0.0
2017-Mar-22 11:32N 37°44' W 122°21'0 0.2
2017-Mar-22 10:32N 37°44' W 122°21'0 0.1
2017-Mar-22 09:32N 37°44' W 122°21'0 0.0
2017-Mar-22 08:32N 37°44' W 122°21'0 0.0
2017-Mar-22 07:32N 37°44' W 122°21'0 0.1
2017-Mar-22 06:32N 37°44' W 122°21'0 0.1
2017-Mar-22 05:32N 37°44' W 122°21'0 0.2
2017-Mar-22 04:32N 37°44' W 122°21'0 0.1
2017-Mar-22 03:32N 37°44' W 122°21'0 0.0
2017-Mar-22 02:32N 37°44' W 122°21'0 0.0
2017-Mar-22 01:32N 37°44' W 122°21'0 0.0
2017-Mar-22 00:32N 37°44' W 122°21'0 0.0
2017-Mar-21 23:32N 37°44' W 122°21'0 0.2
2017-Mar-21 22:32N 37°44' W 122°21'0 0.1
2017-Mar-21 21:32N 37°44' W 122°21'0 0.1
2017-Mar-21 20:32N 37°44' W 122°21'0 0.1
2017-Mar-21 19:32N 37°44' W 122°21'0 0.0
2017-Mar-21 18:32N 37°44' W 122°21'0 0.0
2017-Mar-21 17:32N 37°44' W 122°21'0 0.0
2017-Mar-21 16:32N 37°44' W 122°21'0 0.0
2017-Mar-21 15:32N 37°44' W 122°21'0 0.2
2017-Mar-21 14:34N 37°44' W 122°21'0 0.1
2017-Mar-21 13:33N 37°44' W 122°21'0 0.0
2017-Mar-21 12:33N 37°44' W 122°21'0 0.1
2017-Mar-21 11:33N 37°44' W 122°21'0 0.1
2017-Mar-21 10:33N 37°44' W 122°20'0 0.2
2017-Mar-21 09:33N 37°44' W 122°21'0 0.1
2017-Mar-21 08:33N 37°44' W 122°21'0 0.0
2017-Mar-21 07:33N 37°44' W 122°21'0 0.0
2017-Mar-21 06:34N 37°44' W 122°21'0 0.0
2017-Mar-21 05:33N 37°44' W 122°21'0 0.1
2017-Mar-21 04:34N 37°44' W 122°21'0 0.2
2017-Mar-21 03:34N 37°44' W 122°21'0 0.0
2017-Mar-21 02:33N 37°44' W 122°21'0 0.0
2017-Mar-21 01:33N 37°44' W 122°21'0 0.0
2017-Mar-21 00:33N 37°44' W 122°21'0 0.0
2017-Mar-20 23:33N 37°44' W 122°21'0 0.0
2017-Mar-20 22:33N 37°44' W 122°21'0 0.2
2017-Mar-20 21:33N 37°44' W 122°20'0 0.2
2017-Mar-20 20:34N 37°44' W 122°21'0 0.0
2017-Mar-20 19:34N 37°44' W 122°21'0 0.0
2017-Mar-20 18:33N 37°44' W 122°21'0 0.0
2017-Mar-20 17:34N 37°44' W 122°21'0 0.0
2017-Mar-20 16:34N 37°44' W 122°21'0 0.0
2017-Mar-20 15:33N 37°44' W 122°21'0 0.0
2017-Mar-20 14:33N 37°44' W 122°21'0 0.0
2017-Mar-20 13:34N 37°44' W 122°21'0 0.2
2017-Mar-20 12:33N 37°44' W 122°21'0 0.1
2017-Mar-20 11:34N 37°44' W 122°21'0 0.0
2017-Mar-20 10:33N 37°44' W 122°21'0 0.0
2017-Mar-20 09:33N 37°44' W 122°21'0 0.0
2017-Mar-20 08:33N 37°44' W 122°21'0 0.2
2017-Mar-20 07:33N 37°44' W 122°21'0 0.1
2017-Mar-20 06:33N 37°44' W 122°21'0 0.0
2017-Mar-20 05:33N 37°44' W 122°21'0 0.0
2017-Mar-20 04:33N 37°44' W 122°21'0 0.0
2017-Mar-20 03:33N 37°44' W 122°21'0 0.2
2017-Mar-20 02:34N 37°44' W 122°21'0 0.1
2017-Mar-20 01:34N 37°44' W 122°21'0 0.1
2017-Mar-20 00:33N 37°44' W 122°21'0 0.0
2017-Mar-19 23:33N 37°44' W 122°21'0 0.0
2017-Mar-19 22:33N 37°44' W 122°21'0 0.0
2017-Mar-19 21:33N 37°44' W 122°21'0 0.2
2017-Mar-19 20:33N 37°44' W 122°20'0 0.2
2017-Mar-19 19:33N 37°44' W 122°21'0 0.1
2017-Mar-19 18:33N 37°44' W 122°21'0 0.0
2017-Mar-19 17:33N 37°44' W 122°21'0 0.0
2017-Mar-19 16:34N 37°44' W 122°21'0 0.0
2017-Mar-19 15:33N 37°44' W 122°21'0 0.0
2017-Mar-19 14:33N 37°44' W 122°21'0 0.1
2017-Mar-19 13:34N 37°44' W 122°21'0 0.2
2017-Mar-19 12:33N 37°44' W 122°21'0 0.0
2017-Mar-19 11:33N 37°44' W 122°21'0 0.0
2017-Mar-19 10:33N 37°44' W 122°21'0 0.0
2017-Mar-19 09:34N 37°44' W 122°21'0 0.0
2017-Mar-19 08:34N 37°44' W 122°21'0 0.1
2017-Mar-19 07:34N 37°44' W 122°21'0 0.2
2017-Mar-19 06:33N 37°44' W 122°21'0 0.0
2017-Mar-19 05:34N 37°44' W 122°21'0 0.0
2017-Mar-19 04:34N 37°44' W 122°21'0 0.0
2017-Mar-19 03:33N 37°44' W 122°21'0 0.1
2017-Mar-19 02:33N 37°44' W 122°21'0 0.2
2017-Mar-19 01:33N 37°44' W 122°21'0 0.1
2017-Mar-19 00:33N 37°44' W 122°21'0 0.0
2017-Mar-18 23:33N 37°44' W 122°21'0 0.0
2017-Mar-18 22:33N 37°44' W 122°21'0 0.0
2017-Mar-18 21:33N 37°44' W 122°21'0 0.0
2017-Mar-18 20:33N 37°44' W 122°21'0 0.1
2017-Mar-18 19:33N 37°44' W 122°20'0 0.2
2017-Mar-18 18:33N 37°44' W 122°21'0 0.0
2017-Mar-18 17:33N 37°44' W 122°21'0 0.1
2017-Mar-18 16:33N 37°44' W 122°21'0 0.0
2017-Mar-18 15:33N 37°44' W 122°21'0 0.0
2017-Mar-18 14:34N 37°44' W 122°21'0 0.0
2017-Mar-18 13:33N 37°44' W 122°21'0 0.1
2017-Mar-18 12:33N 37°44' W 122°21'0 0.2
2017-Mar-18 11:33N 37°44' W 122°20'0 0.1
2017-Mar-18 10:33N 37°44' W 122°21'0 0.0
2017-Mar-18 09:33N 37°44' W 122°21'0 0.0
2017-Mar-18 08:34N 37°44' W 122°21'0 0.0
2017-Mar-18 07:33N 37°44' W 122°21'0 0.0
2017-Mar-18 06:33N 37°44' W 122°21'0 0.2
2017-Mar-18 05:33N 37°44' W 122°21'0 0.1
2017-Mar-18 04:33N 37°44' W 122°21'0 0.1
2017-Mar-18 03:33N 37°44' W 122°21'0 0.1
2017-Mar-18 02:33N 37°44' W 122°21'0 0.0
2017-Mar-18 01:33N 37°44' W 122°21'0 0.2
2017-Mar-18 00:33N 37°44' W 122°20'0 0.1
2017-Mar-17 23:33N 37°44' W 122°21'0 0.0
2017-Mar-17 22:33N 37°44' W 122°21'0 0.0
2017-Mar-17 21:33N 37°44' W 122°21'0 0.0
2017-Mar-17 20:33N 37°44' W 122°21'0 0.0
2017-Mar-17 19:33N 37°44' W 122°21'0 0.1
2017-Mar-17 18:33N 37°44' W 122°20'0 0.2
2017-Mar-17 17:33N 37°44' W 122°21'0 0.0
2017-Mar-17 16:33N 37°44' W 122°21'0 0.0
2017-Mar-17 15:33N 37°44' W 122°21'0 0.0
2017-Mar-17 14:33N 37°44' W 122°21'0 0.0
2017-Mar-17 13:33N 37°44' W 122°21'0 0.0
2017-Mar-17 12:33N 37°44' W 122°21'0 0.1
2017-Mar-17 11:33N 37°44' W 122°20'0 0.2
2017-Mar-17 10:33N 37°44' W 122°21'0 0.0
2017-Mar-17 09:33N 37°44' W 122°21'0 0.0
2017-Mar-17 08:33N 37°44' W 122°21'0 0.0
2017-Mar-17 07:33N 37°44' W 122°21'0 0.1
2017-Mar-17 06:33N 37°44' W 122°21'0 0.1
2017-Mar-17 05:33N 37°44' W 122°20'0 0.2
2017-Mar-17 04:33N 37°44' W 122°21'0 0.0
2017-Mar-17 03:34N 37°44' W 122°21'0 0.0
2017-Mar-17 02:34N 37°44' W 122°21'0 0.0
2017-Mar-17 01:33N 37°44' W 122°21'0 0.1
2017-Mar-17 00:33N 37°44' W 122°21'0 0.2
2017-Mar-16 23:34N 37°44' W 122°20'0 0.1
2017-Mar-16 22:33N 37°44' W 122°21'0 0.0
2017-Mar-16 21:33N 37°44' W 122°20'0 0.1
2017-Mar-16 20:33N 37°44' W 122°21'0 0.1
2017-Mar-16 19:33N 37°44' W 122°21'0 0.0
2017-Mar-16 18:33N 37°44' W 122°21'0 0.0
2017-Mar-16 17:33N 37°44' W 122°21'0 0.2
2017-Mar-16 16:34N 37°44' W 122°21'0 0.1
2017-Mar-16 15:34N 37°44' W 122°21'0 0.0
2017-Mar-16 14:33N 37°44' W 122°21'0 0.0
2017-Mar-16 13:33N 37°44' W 122°21'0 0.0
2017-Mar-16 12:33N 37°44' W 122°21'0 0.1
2017-Mar-16 11:34N 37°44' W 122°21'0 0.2
2017-Mar-16 10:33N 37°44' W 122°20'0 0.0
2017-Mar-16 09:33N 37°44' W 122°20'0 0.1
2017-Mar-16 08:34N 37°44' W 122°21'0 0.0
2017-Mar-16 07:34N 37°44' W 122°21'0 0.0
2017-Mar-16 06:33N 37°44' W 122°21'0 0.0
2017-Mar-16 05:33N 37°44' W 122°21'0 0.1
2017-Mar-16 04:33N 37°44' W 122°21'0 0.2
2017-Mar-16 03:33N 37°44' W 122°21'0 0.1
2017-Mar-16 02:33N 37°44' W 122°21'0 0.0
2017-Mar-16 01:33N 37°44' W 122°21'0 0.0
2017-Mar-16 00:33N 37°44' W 122°21'0 0.0
2017-Mar-15 23:33N 37°44' W 122°21'0 0.2
2017-Mar-15 22:33N 37°44' W 122°21'0 0.0
2017-Mar-15 21:33N 37°44' W 122°21'0 0.1
2017-Mar-15 20:34N 37°44' W 122°21'0 0.0
2017-Mar-15 19:33N 37°44' W 122°21'0 0.0
2017-Mar-15 18:33N 37°44' W 122°21'0 0.0
2017-Mar-15 17:33N 37°44' W 122°21'0 0.1
2017-Mar-15 16:34N 37°44' W 122°21'0 0.2
2017-Mar-15 15:33N 37°44' W 122°21'0 0.1
2017-Mar-15 14:33N 37°44' W 122°21'0 0.0
2017-Mar-15 13:33N 37°44' W 122°21'0 0.0
2017-Mar-15 12:33N 37°44' W 122°21'0 0.0
2017-Mar-15 11:33N 37°44' W 122°21'0 0.2
2017-Mar-15 10:34N 37°44' W 122°21'0 0.1
2017-Mar-15 09:33N 37°44' W 122°21'0 0.0
2017-Mar-15 08:34N 37°44' W 122°21'0 0.0
2017-Mar-15 07:34N 37°44' W 122°21'0 0.2
2017-Mar-15 06:33N 37°43' W 122°21'8 8.4
2017-Mar-15 05:33N 37°49' W 122°29'1212.1
2017-Mar-15 04:33N 37°44' W 122°42'1111.3
2017-Mar-15 03:33N 37°37' W 122°54'1111.0
2017-Mar-15 02:33N 37°28' W 123°01'1312.8
2017-Mar-15 01:33N 37°15' W 122°57'1313.4
2017-Mar-15 00:33N 37°03' W 122°50'1413.9
2017-Mar-14 23:33N 36°50' W 122°43'10 9.7
2017-Mar-14 22:33N 36°41' W 122°39'5 5.3
2017-Mar-14 21:33N 36°37' W 122°34'1312.9
2017-Mar-14 20:33N 36°25' W 122°29'1313.2
2017-Mar-14 19:33N 36°13' W 122°21'1313.3
2017-Mar-14 18:33N 36°02' W 122°13'1313.1
2017-Mar-14 17:33N 35°51' W 122°05'1413.6
2017-Mar-14 16:33N 35°39' W 121°56'1414.0
2017-Mar-14 15:33N 35°27' W 121°47'1413.8
2017-Mar-14 14:34N 35°15' W 121°38'1413.7
2017-Mar-14 13:34N 35°03' W 121°30'1413.6
2017-Mar-14 12:34N 34°52' W 121°21'1414.0
2017-Mar-14 11:33N 34°40' W 121°13'1414.1
2017-Mar-14 10:33N 34°28' W 121°04'1414.2
2017-Mar-14 09:33N 34°16' W 120°55'1413.7
2017-Mar-14 08:33N 34°03' W 120°46'1414.1
2017-Mar-14 07:33N 33°52' W 120°37'1414.1
2017-Mar-14 06:33N 33°40' W 120°28'1413.8
2017-Mar-14 05:33N 33°28' W 120°18'1413.6
2017-Mar-14 04:33N 33°17' W 120°09'1313.4
2017-Mar-14 03:33N 33°06' W 119°60'1513.7
2017-Mar-14 02:29N 32°54' W 119°50'1213.4
2017-Mar-14 01:34N 32°44' W 119°42'1413.7
2017-Mar-14 00:33N 32°32' W 119°33'1413.6
2017-Mar-13 23:33N 32°21' W 119°24'1313.5
2017-Mar-13 22:33N 32°10' W 119°15'1413.7
2017-Mar-13 21:33N 31°59' W 119°06'1413.6
2017-Mar-13 20:33N 31°47' W 118°57'1413.8
2017-Mar-13 19:33N 31°36' W 118°48'1413.8
2017-Mar-13 18:33N 31°25' W 118°39'1413.9
2017-Mar-13 17:34N 31°13' W 118°30'1312.8
2017-Mar-13 16:33N 31°02' W 118°22'1312.9
2017-Mar-13 15:33N 30°52' W 118°14'1413.7
2017-Mar-13 14:33N 30°40' W 118°05'1413.7
2017-Mar-13 13:33N 30°28' W 117°56'1413.9
2017-Mar-13 12:33N 30°16' W 117°48'1413.7
2017-Mar-13 11:33N 30°05' W 117°40'4013.2
2017-Mar-13 08:33N 29°32' W 117°15'1613.1
2017-Mar-13 07:19N 29°18' W 117°06'1013.0
2017-Mar-13 06:33N 29°09' W 116°60'1413.1
2017-Mar-13 05:31N 28°58' W 116°52'  
Track history (hours):
 
Tides and Currents Weather Stations Pressure Air Temp Water Temp Dewpoint Dewpoint Depression Visibility Wind Speed Wind Dir Waves Ship Positions

Overseas Luzon

Last reported at 2017-Mar-23 05:25 UTC. Time now 2017-Mar-23 16:15 UTC.
Position N 38°02' W 122°08'.

Length 228 m; draft 11 m.

Type: Tanker. MMSI: 538002946.

Date/timePositionNaut miles runAvg speedWind from/ knotsBaromVisibWave heightAir tempDewpointWater temp
2017-Mar-23 05:25N 38°02' W 122°08'6 7.5
2017-Mar-23 04:33N 38°04' W 122°16'9 9.1
2017-Mar-23 03:33N 37°59' W 122°26'1110.5
2017-Mar-23 02:33N 37°49' W 122°23'5 5.2
2017-Mar-23 01:32N 37°44' W 122°21'0 0.0
2017-Mar-23 00:32N 37°44' W 122°21'0 0.1
2017-Mar-22 23:32N 37°44' W 122°20'0 0.0
2017-Mar-22 22:32N 37°44' W 122°20'0 0.2
2017-Mar-22 21:32N 37°44' W 122°21'0 0.0
2017-Mar-22 20:32N 37°44' W 122°21'0 0.1
2017-Mar-22 19:32N 37°44' W 122°21'0 0.0
2017-Mar-22 18:32N 37°44' W 122°21'0 0.0
2017-Mar-22 17:32N 37°44' W 122°21'0 0.1
2017-Mar-22 16:32N 37°44' W 122°21'0 0.2
2017-Mar-22 15:32N 37°44' W 122°21'0 0.0
2017-Mar-22 14:32N 37°44' W 122°21'0 0.0
2017-Mar-22 13:32N 37°44' W 122°21'0 0.0
2017-Mar-22 12:32N 37°44' W 122°21'0 0.0
2017-Mar-22 11:32N 37°44' W 122°21'0 0.2
2017-Mar-22 10:32N 37°44' W 122°21'0 0.1
2017-Mar-22 09:32N 37°44' W 122°21'0 0.0
2017-Mar-22 08:32N 37°44' W 122°21'0 0.0
2017-Mar-22 07:32N 37°44' W 122°21'0 0.1
2017-Mar-22 06:32N 37°44' W 122°21'0 0.1
2017-Mar-22 05:32N 37°44' W 122°21'0 0.2
2017-Mar-22 04:32N 37°44' W 122°21'0 0.1
2017-Mar-22 03:32N 37°44' W 122°21'0 0.0
2017-Mar-22 02:32N 37°44' W 122°21'0 0.0
2017-Mar-22 01:32N 37°44' W 122°21'0 0.0
2017-Mar-22 00:32N 37°44' W 122°21'0 0.0
2017-Mar-21 23:32N 37°44' W 122°21'0 0.2
2017-Mar-21 22:32N 37°44' W 122°21'0 0.1
2017-Mar-21 21:32N 37°44' W 122°21'0 0.1
2017-Mar-21 20:32N 37°44' W 122°21'0 0.1
2017-Mar-21 19:32N 37°44' W 122°21'0 0.0
2017-Mar-21 18:32N 37°44' W 122°21'0 0.0
2017-Mar-21 17:32N 37°44' W 122°21'0 0.0
2017-Mar-21 16:32N 37°44' W 122°21'0 0.0
2017-Mar-21 15:32N 37°44' W 122°21'0 0.2
2017-Mar-21 14:34N 37°44' W 122°21'0 0.1
2017-Mar-21 13:33N 37°44' W 122°21'0 0.0
2017-Mar-21 12:33N 37°44' W 122°21'0 0.1
2017-Mar-21 11:33N 37°44' W 122°21'0 0.1
2017-Mar-21 10:33N 37°44' W 122°20'0 0.2
2017-Mar-21 09:33N 37°44' W 122°21'0 0.1
2017-Mar-21 08:33N 37°44' W 122°21'0 0.0
2017-Mar-21 07:33N 37°44' W 122°21'0 0.0
2017-Mar-21 06:34N 37°44' W 122°21'0 0.0
2017-Mar-21 05:33N 37°44' W 122°21'0 0.1
2017-Mar-21 04:34N 37°44' W 122°21'0 0.2
2017-Mar-21 03:34N 37°44' W 122°21'0 0.0
2017-Mar-21 02:33N 37°44' W 122°21'0 0.0
2017-Mar-21 01:33N 37°44' W 122°21'0 0.0
2017-Mar-21 00:33N 37°44' W 122°21'0 0.0
2017-Mar-20 23:33N 37°44' W 122°21'0 0.0
2017-Mar-20 22:33N 37°44' W 122°21'0 0.2
2017-Mar-20 21:33N 37°44' W 122°20'0 0.2
2017-Mar-20 20:34N 37°44' W 122°21'0 0.0
2017-Mar-20 19:34N 37°44' W 122°21'0 0.0
2017-Mar-20 18:33N 37°44' W 122°21'0 0.0
2017-Mar-20 17:34N 37°44' W 122°21'0 0.0
2017-Mar-20 16:34N 37°44' W 122°21'0 0.0
2017-Mar-20 15:33N 37°44' W 122°21'0 0.0
2017-Mar-20 14:33N 37°44' W 122°21'0 0.0
2017-Mar-20 13:34N 37°44' W 122°21'0 0.2
2017-Mar-20 12:33N 37°44' W 122°21'0 0.1
2017-Mar-20 11:34N 37°44' W 122°21'0 0.0
2017-Mar-20 10:33N 37°44' W 122°21'0 0.0
2017-Mar-20 09:33N 37°44' W 122°21'0 0.0
2017-Mar-20 08:33N 37°44' W 122°21'0 0.2
2017-Mar-20 07:33N 37°44' W 122°21'0 0.1
2017-Mar-20 06:33N 37°44' W 122°21'0 0.0
2017-Mar-20 05:33N 37°44' W 122°21'0 0.0
2017-Mar-20 04:33N 37°44' W 122°21'0 0.0
2017-Mar-20 03:33N 37°44' W 122°21'0 0.2
2017-Mar-20 02:34N 37°44' W 122°21'0 0.1
2017-Mar-20 01:34N 37°44' W 122°21'0 0.1
2017-Mar-20 00:33N 37°44' W 122°21'0 0.0
2017-Mar-19 23:33N 37°44' W 122°21'0 0.0
2017-Mar-19 22:33N 37°44' W 122°21'0 0.0
2017-Mar-19 21:33N 37°44' W 122°21'0 0.2
2017-Mar-19 20:33N 37°44' W 122°20'0 0.2
2017-Mar-19 19:33N 37°44' W 122°21'0 0.1
2017-Mar-19 18:33N 37°44' W 122°21'0 0.0
2017-Mar-19 17:33N 37°44' W 122°21'0 0.0
2017-Mar-19 16:34N 37°44' W 122°21'0 0.0
2017-Mar-19 15:33N 37°44' W 122°21'0 0.0
2017-Mar-19 14:33N 37°44' W 122°21'0 0.1
2017-Mar-19 13:34N 37°44' W 122°21'0 0.2
2017-Mar-19 12:33N 37°44' W 122°21'0 0.0
2017-Mar-19 11:33N 37°44' W 122°21'0 0.0
2017-Mar-19 10:33N 37°44' W 122°21'0 0.0
2017-Mar-19 09:34N 37°44' W 122°21'0 0.0
2017-Mar-19 08:34N 37°44' W 122°21'0 0.1
2017-Mar-19 07:34N 37°44' W 122°21'0 0.2
2017-Mar-19 06:33N 37°44' W 122°21'0 0.0
2017-Mar-19 05:34N 37°44' W 122°21'0 0.0
2017-Mar-19 04:34N 37°44' W 122°21'0 0.0
2017-Mar-19 03:33N 37°44' W 122°21'0 0.1
2017-Mar-19 02:33N 37°44' W 122°21'0 0.2
2017-Mar-19 01:33N 37°44' W 122°21'0 0.1
2017-Mar-19 00:33N 37°44' W 122°21'0 0.0
2017-Mar-18 23:33N 37°44' W 122°21'0 0.0
2017-Mar-18 22:33N 37°44' W 122°21'0 0.0
2017-Mar-18 21:33N 37°44' W 122°21'0 0.0
2017-Mar-18 20:33N 37°44' W 122°21'0 0.1
2017-Mar-18 19:33N 37°44' W 122°20'0 0.2
2017-Mar-18 18:33N 37°44' W 122°21'0 0.0
2017-Mar-18 17:33N 37°44' W 122°21'0 0.1
2017-Mar-18 16:33N 37°44' W 122°21'0 0.0
2017-Mar-18 15:33N 37°44' W 122°21'0 0.0
2017-Mar-18 14:34N 37°44' W 122°21'0 0.0
2017-Mar-18 13:33N 37°44' W 122°21'0 0.1
2017-Mar-18 12:33N 37°44' W 122°21'0 0.2
2017-Mar-18 11:33N 37°44' W 122°20'0 0.1
2017-Mar-18 10:33N 37°44' W 122°21'0 0.0
2017-Mar-18 09:33N 37°44' W 122°21'0 0.0
2017-Mar-18 08:34N 37°44' W 122°21'0 0.0
2017-Mar-18 07:33N 37°44' W 122°21'0 0.0
2017-Mar-18 06:33N 37°44' W 122°21'0 0.2
2017-Mar-18 05:33N 37°44' W 122°21'0 0.1
2017-Mar-18 04:33N 37°44' W 122°21'0 0.1
2017-Mar-18 03:33N 37°44' W 122°21'0 0.1
2017-Mar-18 02:33N 37°44' W 122°21'0 0.0
2017-Mar-18 01:33N 37°44' W 122°21'0 0.2
2017-Mar-18 00:33N 37°44' W 122°20'0 0.1
2017-Mar-17 23:33N 37°44' W 122°21'0 0.0
2017-Mar-17 22:33N 37°44' W 122°21'0 0.0
2017-Mar-17 21:33N 37°44' W 122°21'0 0.0
2017-Mar-17 20:33N 37°44' W 122°21'0 0.0
2017-Mar-17 19:33N 37°44' W 122°21'0 0.1
2017-Mar-17 18:33N 37°44' W 122°20'0 0.2
2017-Mar-17 17:33N 37°44' W 122°21'0 0.0
2017-Mar-17 16:33N 37°44' W 122°21'0 0.0
2017-Mar-17 15:33N 37°44' W 122°21'0 0.0
2017-Mar-17 14:33N 37°44' W 122°21'0 0.0
2017-Mar-17 13:33N 37°44' W 122°21'0 0.0
2017-Mar-17 12:33N 37°44' W 122°21'0 0.1
2017-Mar-17 11:33N 37°44' W 122°20'0 0.2
2017-Mar-17 10:33N 37°44' W 122°21'0 0.0
2017-Mar-17 09:33N 37°44' W 122°21'0 0.0
2017-Mar-17 08:33N 37°44' W 122°21'0 0.0
2017-Mar-17 07:33N 37°44' W 122°21'0 0.1
2017-Mar-17 06:33N 37°44' W 122°21'0 0.1
2017-Mar-17 05:33N 37°44' W 122°20'0 0.2
2017-Mar-17 04:33N 37°44' W 122°21'0 0.0
2017-Mar-17 03:34N 37°44' W 122°21'0 0.0
2017-Mar-17 02:34N 37°44' W 122°21'0 0.0
2017-Mar-17 01:33N 37°44' W 122°21'0 0.1
2017-Mar-17 00:33N 37°44' W 122°21'0 0.2
2017-Mar-16 23:34N 37°44' W 122°20'0 0.1
2017-Mar-16 22:33N 37°44' W 122°21'0 0.0
2017-Mar-16 21:33N 37°44' W 122°20'0 0.1
2017-Mar-16 20:33N 37°44' W 122°21'0 0.1
2017-Mar-16 19:33N 37°44' W 122°21'0 0.0
2017-Mar-16 18:33N 37°44' W 122°21'0 0.0
2017-Mar-16 17:33N 37°44' W 122°21'0 0.2
2017-Mar-16 16:34N 37°44' W 122°21'0 0.1
2017-Mar-16 15:34N 37°44' W 122°21'0 0.0
2017-Mar-16 14:33N 37°44' W 122°21'0 0.0
2017-Mar-16 13:33N 37°44' W 122°21'0 0.0
2017-Mar-16 12:33N 37°44' W 122°21'0 0.1
2017-Mar-16 11:34N 37°44' W 122°21'0 0.2
2017-Mar-16 10:33N 37°44' W 122°20'0 0.0
2017-Mar-16 09:33N 37°44' W 122°20'0 0.1
2017-Mar-16 08:34N 37°44' W 122°21'0 0.0
2017-Mar-16 07:34N 37°44' W 122°21'0 0.0
2017-Mar-16 06:33N 37°44' W 122°21'0 0.0
2017-Mar-16 05:33N 37°44' W 122°21'0 0.1
2017-Mar-16 04:33N 37°44' W 122°21'0 0.2
2017-Mar-16 03:33N 37°44' W 122°21'0 0.1
2017-Mar-16 02:33N 37°44' W 122°21'0 0.0
2017-Mar-16 01:33N 37°44' W 122°21'0 0.0
2017-Mar-16 00:33N 37°44' W 122°21'0 0.0
2017-Mar-15 23:33N 37°44' W 122°21'0 0.2
2017-Mar-15 22:33N 37°44' W 122°21'0 0.0
2017-Mar-15 21:33N 37°44' W 122°21'0 0.1
2017-Mar-15 20:34N 37°44' W 122°21'0 0.0
2017-Mar-15 19:33N 37°44' W 122°21'0 0.0
2017-Mar-15 18:33N 37°44' W 122°21'0 0.0
2017-Mar-15 17:33N 37°44' W 122°21'0 0.1
2017-Mar-15 16:34N 37°44' W 122°21'0 0.2
2017-Mar-15 15:33N 37°44' W 122°21'0 0.1
2017-Mar-15 14:33N 37°44' W 122°21'0 0.0
2017-Mar-15 13:33N 37°44' W 122°21'0 0.0
2017-Mar-15 12:33N 37°44' W 122°21'0 0.0
2017-Mar-15 11:33N 37°44' W 122°21'0 0.2
2017-Mar-15 10:34N 37°44' W 122°21'0 0.1
2017-Mar-15 09:33N 37°44' W 122°21'0 0.0
2017-Mar-15 08:34N 37°44' W 122°21'0 0.0
2017-Mar-15 07:34N 37°44' W 122°21'0 0.2
2017-Mar-15 06:33N 37°43' W 122°21'8 8.4
2017-Mar-15 05:33N 37°49' W 122°29'1212.1
2017-Mar-15 04:33N 37°44' W 122°42'1111.3
2017-Mar-15 03:33N 37°37' W 122°54'1111.0
2017-Mar-15 02:33N 37°28' W 123°01'1312.8
2017-Mar-15 01:33N 37°15' W 122°57'1313.4
2017-Mar-15 00:33N 37°03' W 122°50'1413.9
2017-Mar-14 23:33N 36°50' W 122°43'10 9.7
2017-Mar-14 22:33N 36°41' W 122°39'5 5.3
2017-Mar-14 21:33N 36°37' W 122°34'1312.9
2017-Mar-14 20:33N 36°25' W 122°29'1313.2
2017-Mar-14 19:33N 36°13' W 122°21'1313.3
2017-Mar-14 18:33N 36°02' W 122°13'1313.1
2017-Mar-14 17:33N 35°51' W 122°05'1413.6
2017-Mar-14 16:33N 35°39' W 121°56'1414.0
2017-Mar-14 15:33N 35°27' W 121°47'1413.8
2017-Mar-14 14:34N 35°15' W 121°38'1413.7
2017-Mar-14 13:34N 35°03' W 121°30'1413.6
2017-Mar-14 12:34N 34°52' W 121°21'1414.0
2017-Mar-14 11:33N 34°40' W 121°13'1414.1
2017-Mar-14 10:33N 34°28' W 121°04'1414.2
2017-Mar-14 09:33N 34°16' W 120°55'1413.7
2017-Mar-14 08:33N 34°03' W 120°46'1414.1
2017-Mar-14 07:33N 33°52' W 120°37'1414.1
2017-Mar-14 06:33N 33°40' W 120°28'1413.8
2017-Mar-14 05:33N 33°28' W 120°18'1413.6
2017-Mar-14 04:33N 33°17' W 120°09'1313.4
2017-Mar-14 03:33N 33°06' W 119°60'1513.7
2017-Mar-14 02:29N 32°54' W 119°50'1213.4
2017-Mar-14 01:34N 32°44' W 119°42'1413.7
2017-Mar-14 00:33N 32°32' W 119°33'1413.6
2017-Mar-13 23:33N 32°21' W 119°24'1313.5
2017-Mar-13 22:33N 32°10' W 119°15'1413.7
2017-Mar-13 21:33N 31°59' W 119°06'1413.6
2017-Mar-13 20:33N 31°47' W 118°57'1413.8
2017-Mar-13 19:33N 31°36' W 118°48'1413.8
2017-Mar-13 18:33N 31°25' W 118°39'1413.9
2017-Mar-13 17:34N 31°13' W 118°30'1312.8
2017-Mar-13 16:33N 31°02' W 118°22'1312.9
2017-Mar-13 15:33N 30°52' W 118°14'1413.7
2017-Mar-13 14:33N 30°40' W 118°05'1413.7
2017-Mar-13 13:33N 30°28' W 117°56'1413.9
2017-Mar-13 12:33N 30°16' W 117°48'1413.7
2017-Mar-13 11:33N 30°05' W 117°40'4013.2
2017-Mar-13 08:33N 29°32' W 117°15'1613.1
2017-Mar-13 07:19N 29°18' W 117°06'1013.0
2017-Mar-13 06:33N 29°09' W 116°60'1413.1
2017-Mar-13 05:31N 28°58' W 116°52'  

Dump ship's entire track history